createdAt,value
2023-04-04T00:01:01.984Z,3.1
2023-04-04T00:06:01.815Z,3.4
2023-04-04T00:11:01.631Z,2.6
2023-04-04T00:16:01.793Z,2.4
2023-04-04T00:21:01.259Z,2.3
2023-04-04T00:26:01.088Z,2.5
2023-04-04T00:31:00.850Z,3.4
2023-04-04T02:29:21.247Z,3.3
2023-04-04T02:30:57.183Z,2.9
2023-04-04T02:40:55.848Z,3.4
2023-04-04T02:42:31.645Z,3.4
2023-04-04T02:45:55.255Z,4.6
2023-04-04T02:50:56.344Z,3.9
2023-04-04T02:55:54.883Z,3.1
2023-04-04T03:00:54.598Z,3.3
2023-04-04T03:05:54.386Z,2.8
2023-04-04T03:10:54.109Z,4.0
2023-04-04T03:15:53.901Z,3.8
2023-04-04T03:20:53.729Z,3.3
2023-04-04T03:25:53.390Z,3.5
2023-04-04T03:30:53.130Z,3.3
2023-04-04T03:35:52.935Z,3.4
2023-04-04T03:41:03.120Z,4.2
2023-04-04T03:45:56.458Z,3.8
2023-04-04T03:50:53.540Z,3.6
2023-04-04T03:55:52.723Z,3.1
2023-04-04T04:00:52.916Z,3.6
2023-04-04T04:05:53.309Z,3.5
2023-04-04T04:10:51.760Z,3.6
2023-04-04T04:20:51.385Z,3.4
2023-04-04T04:25:50.550Z,3.7
2023-04-04T04:30:52.021Z,4.3
2023-04-04T04:36:03.766Z,7.2
2023-04-04T04:40:55.482Z,5.0
2023-04-04T04:45:50.773Z,5.8
2023-04-04T04:50:49.154Z,6.1
2023-04-04T04:55:50.178Z,5.7
2023-04-04T05:00:48.690Z,6.9
2023-04-04T05:05:48.341Z,6.3
2023-04-04T05:10:48.036Z,6.7
2023-04-04T05:15:47.799Z,5.9
2023-04-04T05:25:47.248Z,6.2
2023-04-04T05:30:46.967Z,6.0
2023-04-04T05:35:46.808Z,5.5
2023-04-04T05:40:46.445Z,5.9
2023-04-04T07:05:45.925Z,7.5
2023-04-04T07:10:47.434Z,6.6
2023-04-04T07:15:41.599Z,6.5
2023-04-04T07:20:46.833Z,5.6
2023-04-04T07:25:42.690Z,4.9
2023-04-04T07:30:41.167Z,5.3
2023-04-04T07:35:50.959Z,5.9
2023-04-04T07:40:44.515Z,4.5
2023-04-04T07:45:40.242Z,5.6
2023-04-04T07:50:40.236Z,5.7
2023-04-04T07:55:39.852Z,5.9
2023-04-04T08:00:44.201Z,5.8
2023-04-04T08:05:50.033Z,6.7
2023-04-04T08:10:39.798Z,7.4
2023-04-04T08:15:39.353Z,7.2
2023-04-04T08:20:39.311Z,6.3
2023-04-04T08:25:39.058Z,6.7
2023-04-04T08:30:39.044Z,5.6
2023-04-04T08:35:39.104Z,6.5
2023-04-04T08:40:39.015Z,6.7
2023-04-04T08:45:38.547Z,6.3
2023-04-04T08:50:38.810Z,6.0
2023-04-04T08:55:38.391Z,6.5
2023-04-04T09:00:38.738Z,5.7
2023-04-04T09:05:40.052Z,5.2
2023-04-04T09:10:38.362Z,4.1
2023-04-04T09:15:38.140Z,4.6
2023-04-04T09:20:38.420Z,4.8
2023-04-04T09:25:38.075Z,3.8
2023-04-04T09:30:38.254Z,4.4
2023-04-04T09:35:38.053Z,4.0
2023-04-04T09:45:39.516Z,4.3
2023-04-04T09:50:39.510Z,5.8
2023-04-04T09:55:40.363Z,4.5
2023-04-04T10:05:38.177Z,3.9
2023-04-04T10:11:09.085Z,4.3
2023-04-04T10:15:40.798Z,4.7
2023-04-04T10:20:38.441Z,4.3
2023-04-04T10:25:38.303Z,3.9
2023-04-04T10:30:38.844Z,4.7
2023-04-04T10:35:38.475Z,4.2
2023-04-04T10:40:39.113Z,4.9
2023-04-04T10:45:39.186Z,5.0
2023-04-04T10:50:38.752Z,4.4
2023-04-04T10:55:39.217Z,4.6
2023-04-04T11:00:39.091Z,4.5
2023-04-04T11:05:39.305Z,3.8
2023-04-04T11:10:39.256Z,4.0
2023-04-04T11:20:39.594Z,3.7
2023-04-04T11:25:39.899Z,3.8
2023-04-04T11:30:39.726Z,3.9
2023-04-04T11:35:40.227Z,4.1
2023-04-04T11:40:41.216Z,3.7
2023-04-04T11:45:40.197Z,3.2
2023-04-04T11:55:40.611Z,3.4
2023-04-04T12:00:40.359Z,2.9
2023-04-04T12:05:40.870Z,3.3
2023-04-04T12:15:44.938Z,3.8
2023-04-04T12:20:40.782Z,4.0
2023-04-04T12:25:42.550Z,4.4
2023-04-04T12:30:41.080Z,3.5
2023-04-04T12:35:43.303Z,3.3
2023-04-04T12:40:41.320Z,3.4
2023-04-04T12:45:41.865Z,2.4
2023-04-04T12:50:41.625Z,2.0
2023-04-04T12:55:42.049Z,2.8
2023-04-04T13:00:42.073Z,2.1
2023-04-04T13:05:42.191Z,1.7
2023-04-04T13:10:42.093Z,1.8
2023-04-04T13:15:44.505Z,2.1
2023-04-04T13:20:42.385Z,2.4
2023-04-04T13:25:42.552Z,2.2
2023-04-04T13:30:44.618Z,2.1
2023-04-04T13:35:42.776Z,2.3
2023-04-04T13:40:42.826Z,1.8
2023-04-04T13:45:42.973Z,1.9
2023-04-04T13:50:44.507Z,2.6
2023-04-04T13:55:56.901Z,2.0
2023-04-04T14:00:43.230Z,2.1
2023-04-04T14:10:43.432Z,1.9
2023-04-04T14:15:43.766Z,2.6
2023-04-04T14:25:43.846Z,3.2
2023-04-04T14:30:44.180Z,2.4
2023-04-04T14:35:50.166Z,3.0
2023-04-04T14:40:44.244Z,3.2
2023-04-04T14:45:44.386Z,3.4
2023-04-04T14:50:44.575Z,3.0
2023-04-04T14:55:49.080Z,3.2
2023-04-04T15:00:55.320Z,2.7
2023-04-04T15:05:44.986Z,3.8
2023-04-04T15:10:45.157Z,3.1
2023-04-04T15:15:45.589Z,3.0
2023-04-04T15:20:45.854Z,2.4
2023-04-04T15:30:46.015Z,3.4
2023-04-04T15:35:46.294Z,3.3
2023-04-04T15:40:47.936Z,2.9
2023-04-04T15:45:47.529Z,2.6
2023-04-04T15:50:46.653Z,3.5
2023-04-04T15:55:46.606Z,2.7
2023-04-04T16:00:47.274Z,3.5
2023-04-04T16:05:46.928Z,2.7
2023-04-04T16:10:49.365Z,2.6
2023-04-04T16:15:47.319Z,4.1
2023-04-04T16:20:47.327Z,3.9
2023-04-04T16:25:47.780Z,3.1
2023-04-04T16:30:47.710Z,3.3
2023-04-04T16:35:47.972Z,3.7
2023-04-04T16:40:53.234Z,3.2
2023-04-04T16:45:50.849Z,2.9
2023-04-04T17:00:52.778Z,2.6
2023-04-04T17:05:35.466Z,2.6
2023-04-04T17:05:49.997Z,4.0
2023-04-04T17:10:49.429Z,2.4
2023-04-04T17:15:50.369Z,2.7
2023-04-04T17:20:49.272Z,2.8
2023-04-04T17:35:49.510Z,2.6
2023-04-04T17:40:49.590Z,2.4
2023-04-04T17:45:49.617Z,2.7
2023-04-04T17:50:51.159Z,2.6
2023-04-04T17:55:50.007Z,2.1
2023-04-04T18:00:50.238Z,2.4
2023-04-04T18:05:51.583Z,2.8
2023-04-04T18:10:50.753Z,2.2
2023-04-04T18:15:51.141Z,2.9
2023-04-04T18:25:51.185Z,2.6
2023-04-04T18:30:01.506Z,2.6
2023-04-04T18:35:51.316Z,3.5
2023-04-04T18:40:51.310Z,3.1
2023-04-04T18:45:51.268Z,2.4
2023-04-04T18:50:51.204Z,3.0
2023-04-04T18:55:51.250Z,3.5
2023-04-04T19:00:51.196Z,3.8
2023-04-04T19:05:51.138Z,2.8
2023-04-04T19:10:51.248Z,4.3
2023-04-04T19:20:50.922Z,5.1
2023-04-04T19:25:53.361Z,4.8
2023-04-04T19:30:50.757Z,3.6
2023-04-04T19:35:50.756Z,3.4
2023-04-04T19:45:50.436Z,3.3
2023-04-04T19:50:50.284Z,2.9
2023-04-04T19:55:52.226Z,3.7
2023-04-04T20:00:50.174Z,2.8
2023-04-04T20:05:51.451Z,2.7
2023-04-04T20:10:52.091Z,3.4
2023-04-04T20:15:49.894Z,3.5
2023-04-04T20:20:49.758Z,4.5
2023-04-04T20:25:49.744Z,6.8
2023-04-04T20:30:49.585Z,4.5
2023-04-04T20:35:49.439Z,8.3
2023-04-04T20:39:16.456Z,8.3
2023-04-04T20:40:49.275Z,13.1
2023-04-04T20:45:49.274Z,18.1
2023-04-04T20:50:49.034Z,10.2
2023-04-04T20:55:48.884Z,4.4
2023-04-04T21:00:48.741Z,6.6
2023-04-04T21:05:48.593Z,5.4
2023-04-04T21:10:48.426Z,8.6
2023-04-04T21:15:48.345Z,8.2
2023-04-04T21:20:48.115Z,8.8
2023-04-04T21:25:48.010Z,7.2
2023-04-04T21:29:30.714Z,7.2
2023-04-04T21:35:47.714Z,6.1
2023-04-04T21:40:47.510Z,5.9
2023-04-04T21:45:47.429Z,4.9
2023-04-04T21:50:49.756Z,5.0
2023-04-04T21:55:47.095Z,6.5
2023-04-04T22:00:46.856Z,5.4
2023-04-04T22:05:46.698Z,5.2
2023-04-04T22:10:46.507Z,6.7
2023-04-04T22:15:46.431Z,6.3
2023-04-04T22:20:46.163Z,6.6
2023-04-04T22:25:45.954Z,6.0
2023-04-04T22:30:45.769Z,5.7
2023-04-04T22:35:45.739Z,4.8
2023-04-04T22:40:45.362Z,6.1
2023-04-04T22:45:45.221Z,5.9
2023-04-04T22:50:45.009Z,12.6
2023-04-04T22:55:44.810Z,18.0
2023-04-04T23:00:44.566Z,14.6
2023-04-04T23:05:46.231Z,13.6
2023-04-04T23:10:44.191Z,9.9
2023-04-04T23:15:44.089Z,5.7
2023-04-04T23:20:43.901Z,6.3
2023-04-04T23:30:43.350Z,7.6
2023-04-04T23:35:43.032Z,8.4
2023-04-04T23:40:42.969Z,10.5
2023-04-04T23:45:42.514Z,7.3
2023-04-04T23:50:42.518Z,9.2
2023-04-04T23:55:41.961Z,9.7
